createdAt,value
2018-04-28T00:01:52.978Z,59.50
2018-04-28T00:04:26.787Z,60.20
2018-04-28T00:07:00.588Z,59.90
2018-04-28T00:09:34.190Z,59.40
2018-04-28T00:12:08.000Z,59.90
2018-04-28T00:14:41.550Z,61.30
2018-04-28T00:17:16.025Z,62.20
2018-04-28T00:19:58.375Z,62.00
2018-04-28T00:22:38.610Z,62.00
2018-04-28T00:25:13.650Z,61.70
2018-04-28T00:28:08.095Z,61.70
2018-04-28T00:30:44.362Z,62.40
2018-04-28T00:33:20.022Z,61.90
2018-04-28T00:36:08.770Z,63.10
2018-04-28T00:38:47.619Z,62.40
2018-04-28T00:41:21.210Z,62.20
2018-04-28T00:43:55.606Z,62.60
2018-04-28T00:46:29.102Z,62.60
2018-04-28T00:49:03.943Z,63.20
2018-04-28T00:51:38.574Z,63.30
2018-04-28T00:54:15.976Z,63.40
2018-04-28T01:00:19.383Z,63.90
2018-04-28T01:02:55.543Z,64.20
2018-04-28T01:05:30.882Z,64.60
2018-04-28T01:08:04.680Z,64.60
2018-04-28T01:10:38.291Z,64.70
2018-04-28T01:13:11.914Z,64.80
2018-04-28T01:15:45.686Z,65.40
2018-04-28T01:18:29.483Z,65.40
2018-04-28T01:21:04.362Z,65.60
2018-04-28T01:23:39.611Z,65.50
2018-04-28T01:26:20.778Z,65.40
2018-04-28T01:28:57.241Z,65.70
2018-04-28T01:31:31.058Z,65.70
2018-04-28T01:34:10.599Z,65.70
2018-04-28T01:36:46.859Z,65.90
2018-04-28T01:39:31.889Z,65.90
2018-04-28T01:42:21.371Z,65.80
2018-04-28T01:47:59.632Z,65.80
2018-04-28T01:50:36.101Z,66.40
2018-04-28T01:53:10.518Z,66.70
2018-04-28T01:55:55.994Z,66.70
2018-04-28T01:58:36.150Z,67.10
2018-04-28T02:04:22.146Z,68.10
2018-04-28T02:06:58.731Z,68.40
2018-04-28T02:09:32.539Z,68.40
2018-04-28T02:12:13.984Z,68.60
2018-04-28T02:14:54.285Z,68.40
2018-04-28T02:20:27.756Z,68.30
2018-04-28T02:23:17.770Z,68.50
2018-04-28T02:25:52.390Z,68.20
2018-04-28T02:28:31.526Z,68.40
2018-04-28T02:31:12.826Z,68.00
2018-04-28T02:33:54.644Z,68.20
2018-04-28T02:36:47.259Z,68.20
2018-04-28T02:39:21.726Z,67.40
2018-04-28T02:42:01.267Z,67.70
2018-04-28T02:44:36.573Z,67.30
2018-04-28T02:47:10.473Z,67.60
2018-04-28T02:49:45.610Z,67.40
2018-04-28T02:55:39.612Z,67.20
2018-04-28T02:58:15.136Z,67.00
2018-04-28T03:00:57.366Z,66.40
2018-04-28T03:03:30.926Z,66.30
2018-04-28T03:06:04.602Z,66.00
2018-04-28T03:08:40.183Z,65.40
2018-04-28T03:11:16.426Z,65.10
2018-04-28T03:13:50.775Z,65.10
2018-04-28T03:16:29.938Z,64.30
2018-04-28T03:19:06.383Z,64.40
2018-04-28T03:21:41.014Z,64.30
2018-04-28T03:24:39.178Z,63.80
2018-04-28T03:27:13.490Z,64.00
2018-04-28T03:29:54.755Z,64.10
2018-04-28T03:32:42.795Z,63.90
2018-04-28T03:35:17.966Z,63.80
2018-04-28T03:38:07.335Z,63.60
2018-04-28T03:40:47.452Z,64.00
2018-04-28T03:43:41.765Z,63.60
2018-04-28T03:46:21.307Z,64.10
2018-04-28T03:51:56.775Z,63.80
2018-04-28T03:54:32.013Z,63.70
2018-04-28T04:00:21.215Z,63.30
2018-04-28T04:03:04.598Z,63.20
2018-04-28T04:05:43.971Z,63.10
2018-04-28T04:08:34.150Z,63.40
2018-04-28T04:11:20.654Z,63.60
2018-04-28T04:14:01.842Z,63.50
2018-04-28T04:16:58.991Z,63.50
2018-04-28T04:22:48.340Z,63.70
2018-04-28T04:25:31.913Z,63.90
2018-04-28T04:28:06.134Z,63.70
2018-04-28T04:31:02.566Z,63.60
2018-04-28T04:33:38.023Z,63.60
2018-04-28T04:36:15.594Z,63.70
2018-04-28T04:38:49.309Z,63.30
2018-04-28T04:41:23.929Z,63.50
2018-04-28T04:46:57.187Z,63.40
2018-04-28T04:49:39.644Z,63.40
2018-04-28T04:52:38.135Z,63.50
2018-04-28T04:55:21.227Z,63.70
2018-04-28T04:58:01.515Z,64.00
2018-04-28T05:01:06.863Z,64.00
2018-04-28T05:03:44.966Z,63.50
2018-04-28T05:06:41.127Z,63.50
2018-04-28T05:09:23.098Z,62.90
2018-04-28T05:12:11.446Z,62.90
2018-04-28T05:14:59.996Z,62.90
2018-04-28T05:17:38.119Z,62.80
2018-04-28T05:20:18.670Z,63.00
2018-04-28T05:22:59.026Z,62.70
2018-04-28T05:25:44.711Z,62.90
2018-04-28T05:28:25.102Z,63.10
2018-04-28T05:31:17.398Z,63.80
2018-04-28T05:34:05.662Z,63.70
2018-04-28T05:39:44.626Z,63.40
2018-04-28T05:45:37.065Z,61.70
2018-04-28T05:51:24.047Z,61.10
2018-04-28T05:54:09.758Z,61.10
2018-04-28T05:57:01.110Z,60.90
2018-04-28T05:59:42.300Z,61.70
2018-04-28T06:02:16.869Z,61.10
2018-04-28T06:04:57.268Z,60.70
2018-04-28T06:07:38.602Z,60.70
2018-04-28T06:10:18.802Z,59.60
2018-04-28T06:13:04.301Z,60.10
2018-04-28T06:15:39.923Z,60.80
2018-04-28T06:18:13.625Z,60.30
2018-04-28T06:20:48.762Z,60.70
2018-04-28T06:23:22.451Z,60.20
2018-04-28T06:25:55.972Z,59.90
2018-04-28T06:28:29.475Z,59.60
2018-04-28T06:31:03.180Z,59.30
2018-04-28T06:33:36.971Z,58.90
2018-04-28T06:36:10.583Z,59.00
2018-04-28T06:38:44.279Z,58.80
2018-04-28T06:41:17.905Z,58.70
2018-04-28T06:43:51.666Z,57.60
2018-04-28T06:46:26.065Z,57.50
2018-04-28T06:48:59.609Z,57.40
2018-04-28T06:51:33.206Z,56.90
2018-04-28T06:54:06.831Z,57.00
2018-04-28T06:56:40.374Z,56.60
2018-04-28T06:59:14.002Z,56.60
2018-04-28T07:01:47.546Z,56.80
2018-04-28T07:04:21.207Z,56.90
2018-04-28T07:06:55.502Z,56.20
2018-04-28T07:09:29.026Z,56.20
2018-04-28T07:12:02.625Z,56.50
2018-04-28T07:14:36.435Z,56.10
2018-04-28T07:17:10.034Z,56.00
2018-04-28T07:19:44.649Z,56.60
2018-04-28T07:22:18.454Z,56.50
2018-04-28T07:24:52.259Z,56.30
2018-04-28T07:27:26.066Z,55.90
2018-04-28T07:29:59.796Z,56.00
2018-04-28T07:32:33.474Z,56.00
2018-04-28T07:35:08.713Z,55.60
2018-04-28T07:37:42.301Z,55.60
2018-04-28T07:40:15.950Z,54.80
2018-04-28T07:42:49.735Z,55.00
2018-04-28T07:45:23.531Z,55.10
2018-04-28T07:47:57.159Z,55.40
2018-04-28T07:50:30.731Z,55.10
2018-04-28T07:53:04.338Z,55.40
2018-04-28T07:55:38.130Z,54.30
2018-04-28T07:58:12.422Z,54.30
2018-04-28T08:00:46.863Z,55.20
2018-04-28T08:03:20.370Z,55.20
2018-04-28T08:05:53.898Z,53.10
2018-04-28T08:08:27.457Z,53.80
2018-04-28T08:11:00.970Z,52.90
2018-04-28T08:13:34.799Z,53.40
2018-04-28T08:16:08.614Z,53.90
2018-04-28T08:18:43.110Z,52.00
2018-04-28T08:21:16.691Z,51.80
2018-04-28T08:23:50.619Z,50.90
2018-04-28T08:26:24.233Z,50.70
2018-04-28T08:28:57.819Z,49.90
2018-04-28T08:31:31.618Z,49.40
2018-04-28T08:34:06.039Z,49.40
2018-04-28T08:36:39.717Z,49.40
2018-04-28T08:39:13.204Z,49.40
2018-04-28T08:41:47.254Z,49.40
2018-04-28T08:44:20.911Z,49.10
2018-04-28T08:46:54.742Z,50.50
2018-04-28T08:49:28.466Z,50.10
2018-04-28T08:52:01.995Z,50.90
2018-04-28T08:54:35.662Z,50.30
2018-04-28T08:57:09.234Z,48.90
2018-04-28T08:59:54.838Z,48.50
2018-04-28T09:02:28.555Z,48.30
2018-04-28T09:05:02.277Z,48.60
2018-04-28T09:07:38.622Z,48.70
2018-04-28T09:10:12.330Z,48.30
2018-04-28T09:12:46.029Z,47.80
2018-04-28T09:15:19.618Z,47.90
2018-04-28T09:17:53.110Z,47.80
2018-04-28T09:20:26.825Z,47.50
2018-04-28T09:23:00.434Z,48.10
2018-04-28T09:25:34.050Z,46.90
2018-04-28T09:28:07.703Z,46.80
2018-04-28T09:30:41.218Z,47.40
2018-04-28T09:33:14.845Z,47.20
2018-04-28T09:35:48.634Z,47.30
2018-04-28T09:38:22.115Z,46.80
2018-04-28T09:40:55.657Z,46.40
2018-04-28T09:43:29.307Z,47.40
2018-04-28T09:46:03.252Z,47.20
2018-04-28T09:48:37.667Z,44.60
2018-04-28T09:51:11.483Z,44.50
2018-04-28T09:53:45.895Z,45.80
2018-04-28T09:56:19.536Z,45.80
2018-04-28T09:58:53.202Z,45.90
2018-04-28T10:01:26.794Z,46.60
2018-04-28T10:04:00.330Z,46.80
2018-04-28T10:06:34.313Z,47.40
2018-04-28T10:09:07.999Z,47.90
2018-04-28T10:11:41.514Z,46.90
2018-04-28T10:14:15.795Z,47.60
2018-04-28T10:16:50.331Z,48.50
2018-04-28T10:19:24.014Z,47.70
2018-04-28T10:21:57.554Z,46.10
2018-04-28T10:24:31.218Z,45.70
2018-04-28T10:27:05.669Z,46.70
2018-04-28T10:29:39.384Z,46.60
2018-04-28T10:32:13.879Z,46.30
2018-04-28T10:34:48.296Z,46.30
2018-04-28T10:37:22.224Z,46.30
2018-04-28T10:39:55.818Z,46.70
2018-04-28T10:42:29.431Z,47.80
2018-04-28T10:45:03.915Z,48.60
2018-04-28T10:47:37.576Z,48.20
2018-04-28T10:50:11.245Z,48.80
2018-04-28T10:52:44.758Z,47.80
2018-04-28T10:55:18.458Z,48.80
2018-04-28T10:57:51.966Z,46.60
2018-04-28T11:00:25.519Z,46.90
2018-04-28T11:02:59.030Z,47.50
2018-04-28T11:05:32.883Z,47.90
2018-04-28T11:08:06.704Z,48.70
2018-04-28T11:10:40.163Z,48.40
2018-04-28T11:13:13.944Z,48.00
2018-04-28T11:15:48.290Z,48.50
2018-04-28T11:18:22.092Z,48.50
2018-04-28T11:20:55.662Z,48.10
2018-04-28T11:23:29.314Z,47.10
2018-04-28T11:26:02.982Z,46.80
2018-04-28T11:28:36.586Z,47.00
2018-04-28T11:31:11.118Z,45.50
2018-04-28T11:33:45.543Z,46.60
2018-04-28T11:36:19.342Z,45.90
2018-04-28T11:38:53.165Z,45.30
2018-04-28T11:41:26.863Z,46.00
2018-04-28T11:44:00.435Z,46.30
2018-04-28T11:46:34.850Z,46.40
2018-04-28T11:49:08.579Z,46.30
2018-04-28T11:51:42.389Z,47.10
2018-04-28T11:54:16.803Z,46.60
2018-04-28T11:56:50.471Z,47.30
2018-04-28T11:59:24.209Z,45.80
2018-04-28T12:01:57.833Z,46.40
2018-04-28T12:04:31.494Z,45.90
2018-04-28T12:07:05.222Z,45.00
2018-04-28T12:09:39.074Z,44.90
2018-04-28T12:12:12.622Z,44.10
2018-04-28T12:14:46.426Z,44.00
2018-04-28T12:17:19.911Z,44.40
2018-04-28T12:19:53.426Z,45.60
2018-04-28T12:22:27.139Z,45.30
2018-04-28T12:25:00.827Z,45.60
2018-04-28T12:27:34.683Z,46.00
2018-04-28T12:30:08.279Z,44.70
2018-04-28T12:32:42.260Z,44.60
2018-04-28T12:35:15.922Z,44.50
2018-04-28T12:37:49.656Z,42.50
2018-04-28T12:40:23.487Z,42.80
2018-04-28T12:42:57.951Z,43.70
2018-04-28T12:45:31.549Z,43.90
2018-04-28T12:48:05.167Z,43.40
2018-04-28T12:50:39.008Z,44.50
2018-04-28T12:53:12.866Z,44.30
2018-04-28T12:55:47.163Z,42.60
2018-04-28T12:58:20.687Z,42.50
2018-04-28T13:00:54.190Z,43.20
2018-04-28T13:03:27.769Z,43.30
2018-04-28T13:06:01.546Z,43.20
2018-04-28T13:08:35.331Z,44.10
2018-04-28T13:11:09.604Z,43.50
2018-04-28T13:13:43.193Z,43.20
2018-04-28T13:16:16.686Z,44.10
2018-04-28T13:18:50.227Z,43.30
2018-04-28T13:21:23.937Z,43.70
2018-04-28T13:23:57.744Z,43.80
2018-04-28T13:26:31.555Z,43.70
2018-04-28T13:29:06.075Z,44.60
2018-04-28T13:31:39.639Z,44.60
2018-04-28T13:34:13.374Z,44.90
2018-04-28T13:36:47.185Z,45.40
2018-04-28T13:39:20.898Z,44.40
2018-04-28T13:41:54.595Z,43.80
2018-04-28T13:44:28.186Z,44.10
2018-04-28T13:47:02.063Z,43.30
2018-04-28T13:49:35.687Z,43.50
2018-04-28T13:52:09.402Z,43.50
2018-04-28T13:54:44.028Z,44.20
2018-04-28T13:57:17.827Z,44.20
2018-04-28T13:59:51.638Z,44.90
2018-04-28T14:02:25.251Z,44.80
2018-04-28T14:04:58.939Z,44.40
2018-04-28T14:07:32.508Z,44.30
2018-04-28T14:10:06.146Z,44.80
2018-04-28T14:12:39.843Z,44.60
2018-04-28T14:15:13.650Z,44.70
2018-04-28T14:17:48.146Z,44.10
2018-04-28T14:20:21.782Z,44.00
2018-04-28T14:22:55.484Z,43.30
2018-04-28T14:25:29.282Z,43.70
2018-04-28T14:28:02.774Z,43.50
2018-04-28T14:30:36.375Z,42.90
2018-04-28T14:33:10.769Z,42.70
2018-04-28T14:35:44.502Z,42.80
2018-04-28T14:38:18.059Z,42.40
2018-04-28T14:40:51.914Z,41.50
2018-04-28T14:43:26.195Z,42.20
2018-04-28T14:46:00.134Z,42.20
2018-04-28T14:48:33.946Z,42.70
2018-04-28T14:51:07.470Z,42.70
2018-04-28T14:53:41.018Z,43.40
2018-04-28T14:56:14.827Z,44.30
2018-04-28T14:58:48.425Z,43.80
2018-04-28T15:01:22.477Z,44.30
2018-04-28T15:03:56.366Z,44.80
2018-04-28T15:06:29.882Z,45.00
2018-04-28T15:09:03.430Z,44.80
2018-04-28T15:11:37.016Z,43.80
2018-04-28T15:14:12.079Z,43.50
2018-04-28T15:16:45.857Z,43.50
2018-04-28T15:19:19.487Z,43.40
2018-04-28T15:21:53.056Z,44.00
2018-04-28T15:24:26.558Z,44.70
2018-04-28T15:27:00.206Z,44.80
2018-04-28T15:29:33.878Z,44.90
2018-04-28T15:32:07.483Z,44.90
2018-04-28T15:34:42.039Z,43.60
2018-04-28T15:37:15.846Z,43.60
2018-04-28T15:39:50.342Z,45.20
2018-04-28T15:42:24.086Z,44.50
2018-04-28T15:44:58.349Z,44.70
2018-04-28T15:47:31.974Z,44.70
2018-04-28T15:50:05.879Z,44.40
2018-04-28T15:52:39.498Z,45.10
2018-04-28T15:55:13.121Z,45.30
2018-04-28T15:57:48.215Z,44.00
2018-04-28T16:00:21.798Z,43.90
2018-04-28T16:02:55.544Z,44.80
2018-04-28T16:05:29.207Z,43.90
2018-04-28T16:08:03.147Z,43.90
2018-04-28T16:10:36.626Z,44.40
2018-04-28T16:13:10.350Z,44.90
2018-04-28T16:15:44.766Z,44.80
2018-04-28T16:18:18.574Z,44.70
2018-04-28T16:20:52.175Z,44.60
2018-04-28T16:23:25.973Z,44.70
2018-04-28T16:25:59.782Z,45.60
2018-04-28T16:28:33.386Z,45.40
2018-04-28T16:31:07.675Z,46.10
2018-04-28T16:33:41.427Z,46.00
2018-04-28T16:36:15.162Z,46.10
2018-04-28T16:38:48.810Z,45.90
2018-04-28T16:41:22.411Z,45.50
2018-04-28T16:43:56.218Z,46.10
2018-04-28T16:46:30.024Z,46.30
2018-04-28T16:49:03.758Z,46.70
2018-04-28T16:51:37.523Z,46.40
2018-04-28T16:54:11.130Z,46.40
2018-04-28T16:56:44.850Z,46.40
2018-04-28T16:59:18.643Z,47.20
2018-04-28T17:01:52.310Z,47.30
2018-04-28T17:04:26.046Z,47.40
2018-04-28T17:06:59.717Z,47.80
2018-04-28T17:09:33.334Z,47.80
2018-04-28T17:12:07.122Z,48.00
2018-04-28T17:14:40.751Z,47.50
2018-04-28T17:17:14.478Z,47.80
2018-04-28T17:19:48.141Z,47.80
2018-04-28T17:22:21.659Z,48.10
2018-04-28T17:24:55.349Z,48.00
2018-04-28T17:27:28.866Z,48.00
2018-04-28T17:30:03.180Z,48.40
2018-04-28T17:32:36.839Z,48.40
2018-04-28T17:35:10.487Z,48.30
2018-04-28T17:37:44.914Z,48.20
2018-04-28T17:40:18.719Z,48.80
2018-04-28T17:42:52.531Z,48.30
2018-04-28T17:45:26.324Z,48.70
2018-04-28T17:47:59.996Z,48.30
2018-04-28T17:50:33.616Z,48.50
2018-04-28T17:53:07.334Z,48.60
2018-04-28T17:55:41.142Z,48.80
2018-04-28T17:58:14.742Z,48.60
2018-04-28T18:00:48.547Z,48.90
2018-04-28T18:03:22.146Z,48.70
2018-04-28T18:05:56.161Z,49.30
2018-04-28T18:08:29.958Z,49.50
2018-04-28T18:11:04.469Z,49.70
2018-04-28T18:13:38.389Z,49.70
2018-04-28T18:16:12.019Z,50.20
2018-04-28T18:18:46.310Z,50.50
2018-04-28T18:21:20.015Z,50.50
2018-04-28T18:23:53.682Z,51.80
2018-04-28T18:26:27.296Z,51.90
2018-04-28T18:29:00.706Z,52.40
2018-04-28T18:31:34.419Z,53.00
2018-04-28T18:34:08.806Z,52.30
2018-04-28T18:36:42.590Z,52.20
2018-04-28T18:39:16.925Z,53.00
2018-04-28T18:41:50.870Z,53.00
2018-04-28T18:44:24.473Z,51.80
2018-04-28T18:46:58.156Z,52.40
2018-04-28T18:49:31.877Z,53.10
2018-04-28T18:52:06.182Z,55.70
2018-04-28T18:54:40.587Z,55.80
2018-04-28T18:57:14.519Z,55.80
2018-04-28T18:59:48.001Z,56.80
2018-04-28T19:02:21.518Z,56.40
2018-04-28T19:04:55.802Z,57.40
2018-04-28T19:07:29.747Z,57.40
2018-04-28T19:10:03.341Z,56.60
2018-04-28T19:12:36.943Z,57.60
2018-04-28T19:15:10.747Z,57.20
2018-04-28T19:17:44.266Z,57.50
2018-04-28T19:20:17.782Z,58.00
2018-04-28T19:22:51.556Z,59.00
2018-04-28T19:25:25.406Z,59.10
2018-04-28T19:27:59.075Z,59.10
2018-04-28T19:30:32.630Z,59.10
2018-04-28T19:33:06.234Z,58.40
2018-04-28T19:35:41.398Z,58.10
2018-04-28T19:38:15.210Z,58.10
2018-04-28T19:40:48.971Z,59.00
2018-04-28T19:43:22.814Z,59.80
2018-04-28T19:45:56.528Z,59.40
2018-04-28T19:48:30.268Z,59.10
2018-04-28T19:51:03.908Z,59.70
2018-04-28T19:53:37.507Z,59.60
2018-04-28T19:56:11.253Z,60.20
2018-04-28T19:58:44.927Z,60.10
2018-04-28T20:01:18.437Z,60.80
2018-04-28T20:03:52.105Z,59.80
2018-04-28T20:06:25.837Z,58.40
2018-04-28T20:08:59.439Z,58.00
2018-04-28T20:11:33.039Z,58.70
2018-04-28T20:14:07.338Z,61.00
2018-04-28T20:16:40.926Z,60.90
2018-04-28T20:19:14.575Z,61.20
2018-04-28T20:21:48.125Z,61.50
2018-04-28T20:24:33.638Z,62.00
2018-04-28T20:27:07.130Z,63.60
2018-04-28T20:29:40.827Z,64.70
2018-04-28T20:32:14.381Z,64.00
2018-04-28T20:34:48.146Z,63.70
2018-04-28T20:37:21.922Z,64.00
2018-04-28T20:39:55.846Z,64.40
2018-04-28T20:42:29.454Z,64.60
2018-04-28T20:45:03.041Z,64.60
2018-04-28T20:47:36.591Z,64.80
2018-04-28T20:50:10.242Z,65.40
2018-04-28T20:52:44.782Z,64.40
2018-04-28T20:55:18.586Z,64.40
2018-04-28T20:57:52.189Z,64.80
2018-04-28T21:00:26.710Z,62.30
2018-04-28T21:03:00.627Z,62.40
2018-04-28T21:05:34.226Z,60.80
2018-04-28T21:08:07.886Z,60.10
2018-04-28T21:10:41.830Z,59.90
2018-04-28T21:13:15.338Z,59.90
2018-04-28T21:15:48.911Z,60.20
2018-04-28T21:18:22.638Z,62.10
2018-04-28T21:20:56.650Z,62.90
2018-04-28T21:23:30.145Z,63.00
2018-04-28T21:26:03.846Z,63.70
2018-04-28T21:28:37.446Z,63.70
2018-04-28T21:31:11.280Z,62.00
2018-04-28T21:33:44.851Z,63.30
2018-04-28T21:36:19.159Z,62.80
2018-04-28T21:38:53.568Z,62.10
2018-04-28T21:41:27.291Z,62.00
2018-04-28T21:44:00.985Z,62.50
2018-04-28T21:46:36.018Z,60.40
2018-04-28T21:49:09.819Z,60.30
2018-04-28T21:51:43.419Z,61.60
2018-04-28T21:54:17.348Z,61.90
2018-04-28T21:56:50.967Z,62.00
2018-04-28T21:59:24.750Z,61.70
2018-04-28T22:01:58.446Z,62.60
2018-04-28T22:04:32.853Z,62.70
2018-04-28T22:07:06.578Z,62.60
2018-04-28T22:09:40.170Z,61.90
2018-04-28T22:12:13.982Z,62.90
2018-04-28T22:14:47.581Z,64.30
2018-04-28T22:17:21.183Z,65.40
2018-04-28T22:19:54.689Z,63.80
2018-04-28T22:22:28.474Z,64.70
2018-04-28T22:25:02.208Z,65.60
2018-04-28T22:27:36.611Z,64.80
2018-04-28T22:30:10.292Z,64.80
2018-04-28T22:32:44.023Z,64.80
2018-04-28T22:35:17.831Z,65.60
2018-04-28T22:37:51.430Z,65.40
2018-04-28T22:40:25.095Z,65.50
2018-04-28T22:42:58.792Z,66.20
2018-04-28T22:45:32.323Z,65.80
2018-04-28T22:48:06.030Z,65.20
2018-04-28T22:50:39.638Z,66.60
2018-04-28T22:53:13.158Z,67.30
2018-04-28T22:55:46.705Z,67.80
2018-04-28T22:58:20.429Z,66.70
2018-04-28T23:00:54.035Z,67.00
2018-04-28T23:03:27.848Z,66.00
2018-04-28T23:06:01.514Z,66.40
2018-04-28T23:08:35.274Z,66.90
2018-04-28T23:11:08.855Z,67.10
2018-04-28T23:13:42.443Z,67.10
2018-04-28T23:16:15.938Z,67.20
2018-04-28T23:18:49.654Z,68.00
2018-04-28T23:21:23.958Z,68.20
2018-04-28T23:23:57.602Z,68.20
2018-04-28T23:26:31.152Z,67.90
2018-04-28T23:29:05.082Z,68.20
2018-04-28T23:31:38.884Z,68.60
2018-04-28T23:34:12.449Z,68.70
2018-04-28T23:36:45.991Z,69.30
2018-04-28T23:39:19.543Z,69.80
2018-04-28T23:41:53.163Z,69.30
2018-04-28T23:44:26.879Z,69.10
2018-04-28T23:47:00.490Z,68.80
2018-04-28T23:49:34.181Z,69.10
2018-04-28T23:52:07.871Z,69.10
2018-04-28T23:54:41.706Z,69.10
2018-04-28T23:57:15.205Z,69.40
2018-04-28T23:59:48.791Z,69.90
